Latest Coastal Weather Observations for Low Head

IDV60701

Issued at 11:51 am EDT Tuesday 23 December 2014 (issued every 10 minutes, with the page automatically refreshed every 10 minutes)

About coastal observations | Map of coastal stations | Coastal observations for VIC | Marine services | Other Formats
Station Details ID: 091293 Name: LOW HEAD Lat: -41.05 Lon: 146.79 Height: 3.0 m
Data from the previous 72 hours. | See also: Recent months at Low Head
Date/Time
EDT
Temp

°C
Wind Pressure Rain
since 9am
mm
Weather Cloud Vis
km
Sea
Height
m
Swell
Dir
 
Speed
knots
Gust
knots
hPa Trend Height
m
Period
s
Dir
23/11:30am 17.7 NE 10 11 1005.7 - 1.2 - - - - - - -
23/11:00am 17.9 ENE 9 10 1005.9 - 1.2 - - - - - - -
23/10:30am 17.7 NE 8 9 1006.4 - 1.2 - - - - - - -
23/10:00am 18.0 ENE 7 8 1006.3 - 0.0 - - - - - - -
23/09:30am 18.0 ENE 9 10 1006.3 - 0.0 - - - - - - -
23/09:00am 18.0 ENE 10 12 1006.6 F 1.0 Drizzle Cloudy 15 <0.1 0.3 3 NE
23/08:30am 18.1 ENE 3 5 1006.5 - 1.0 - - - - - - -
23/08:00am 17.3 NW 1 4 1006.7 - 1.0 - - - - - - -
23/07:30am 17.2 SE 5 8 1006.8 - 1.0 - - - - - - -
23/07:00am 16.9 S 7 10 1006.2 - 1.0 - - - - - - -
23/06:30am 16.9 SSE 7 9 1006.4 - 0.8 - - - - - - -
23/06:00am 17.3 ESE 6 9 1006.4 F 0.4 Drizzle Cloudy 25 Calm 0.1 3 NE
23/05:30am 17.9 SE 6 8 1006.4 - 0.0 - - - - - - -
23/05:00am 17.6 SSE 6 7 1006.6 - 0.0 - - - - - - -
23/04:30am 17.6 S 7 8 1006.0 - 0.0 - - - - - - -
23/04:00am 17.6 SSE 5 7 1006.2 - 0.0 - - - - - - -
23/03:30am 17.5 SSE 8 9 1006.3 - 0.0 - - - - - - -
23/03:00am 17.7 SW 4 7 1006.7 - 0.0 - - - - - - -
23/02:30am 18.1 NE 2 6 1007.6 - 0.0 - - - - - - -
23/02:00am 18.2 SSE 7 9 1007.4 - 0.0 - - - - - - -
23/01:30am 18.0 SSE 6 7 1008.3 - 0.0 - - - - - - -
23/01:00am 17.6 NE 7 8 1009.0 - 0.0 - - - - - - -
23/12:30am 18.1 NE 10 11 1009.5 - 0.0 - - - - - - -
23/12:00am 18.5 SE 6 9 1009.4 - 0.0 - - - - - - -
 
Date/Time
EDT
Temp

°C
Wind Pressure Rain
since 9am
mm
Weather Cloud Vis
km
Sea
Height
m
Swell
Dir
 
Speed
knots
Gust
knots
hPa Trend Height
m
Period
s
Dir
22/11:30pm 18.5 SE 6 8 1009.6 - 0.0 - - - - - - -
22/11:00pm 18.9 SE 7 10 1010.2 - 0.0 - - - - - - -
22/10:30pm 18.9 ESE 5 7 1010.4 - 0.0 - - - - - - -
22/10:00pm 18.9 S 4 7 1011.2 - 0.0 - - - - - - -
22/09:30pm 18.5 WSW 12 15 1011.7 - 0.0 - - - - - - -
22/09:00pm 19.0 SE 3 5 1011.1 - 0.0 - - - - - - -
22/08:30pm 18.8 E 12 14 1010.5 - 0.0 - - - - - - -
22/08:00pm 18.7 E 18 23 1010.5 - 0.0 - - - - - - -
22/07:30pm 18.2 ENE 16 19 1010.4 - 0.0 - - - - - - -
22/07:00pm 17.8 ENE 18 20 1010.2 - 0.0 - - - - - - -
22/06:30pm 17.9 ENE 21 23 1009.9 - 0.0 - - - - - - -
22/06:00pm 17.9 ENE 18 21 1010.5 - 0.0 - - - - - - -
22/05:30pm 17.9 NE 16 18 1011.1 - 0.0 - - - - - - -
22/05:00pm 18.1 NE 12 15 1012.1 - 0.0 - - - - - - -
22/04:30pm 17.8 ENE 8 9 1012.7 - 0.0 - - - - - - -
22/04:00pm 18.1 NNE 9 11 1013.5 - 0.0 - - - - - - -
22/03:30pm 18.4 N 6 7 1013.8 - 0.0 - - - - - - -
22/03:00pm 18.7 CALM 0 4 1013.6 R 0.0 Fine Cloudy 25 <0.1 0.3 3 -
22/02:30pm 19.1 NW 1 3 1014.3 - 0.0 - - - - - - -
22/02:00pm 17.9 NNE 4 6 1015.0 - 0.0 - - - - - - -
22/01:30pm 19.0 N 5 5 1015.4 - 0.0 - - - - - - -
22/01:00pm 19.0 N 1 3 1015.5 - 0.0 - - - - - - -
22/12:30pm 18.4 N 2 4 1015.5 - 0.0 - - - - - - -
22/12:00pm 17.4 NNE 7 8 1015.3 - 0.0 - - - - - - -
22/11:30am 17.1 NNE 10 12 1015.2 - 0.0 - - - - - - -
22/11:00am 17.2 NNE 11 12 1015.2 - 0.0 - - - - - - -
22/10:30am 17.4 NNE 10 11 1015.0 - 0.0 - - - - - - -
22/10:00am 17.6 NE 9 11 1014.8 - 0.0 - - - - - - -
22/09:30am 17.3 NNE 8 10 1015.2 - 0.0 - - - - - - -
22/09:00am 18.1 NE 1 4 1015.3 F 0.0 Fine Mostly cloudy 25 <0.1 0.3 3 -
22/08:30am 17.4 ESE 5 7 1015.1 - 0.0 - - - - - - -
22/08:00am 15.7 S 7 9 1015.0 - 0.0 - - - - - - -
22/07:30am 15.2 S 6 7 1015.0 - 0.0 - - - - - - -
22/07:00am 14.6 SSE 5 6 1014.7 - 0.0 - - - - - - -
22/06:30am 13.4 SE 5 7 1014.5 - 0.0 - - - - - - -
22/06:00am 13.3 SE 6 8 1014.3 F 0.0 Fine Partly cloudy 25 <0.1 0.3 3 NE
22/05:30am 13.5 SSE 7 8 1014.1 - 0.0 - - - - - - -
22/05:00am 13.6 SSE 7 8 1013.8 - 0.0 - - - - - - -
22/04:30am 13.5 SE 7 8 1013.5 - 0.0 - - - - - - -
22/04:00am 13.4 SE 7 8 1013.3 - 0.0 - - - - - - -
22/03:30am 13.8 SE 8 10 1013.5 - 0.0 - - - - - - -
22/03:00am 14.1 ESE 8 10 1013.6 - 0.0 - - - - - - -
22/02:30am 14.0 ESE 7 10 1013.5 - 0.0 - - - - - - -
22/02:00am 14.3 ESE 8 10 1013.6 - 0.0 - - - - - - -
22/01:30am 14.3 E 8 10 1013.7 - 0.0 - - - - - - -
22/01:00am 14.8 E 9 10 1013.6 - 0.0 - - - - - - -
22/12:30am 16.3 NE 5 7 1013.8 - 0.0 - - - - - - -
22/12:00am 16.4 NE 6 7 1013.8 - 0.0 - - - - - - -
 
Date/Time
EDT
Temp

°C
Wind Pressure Rain
since 9am
mm
Weather Cloud Vis
km
Sea
Height
m
Swell
Dir
 
Speed
knots
Gust
knots
hPa Trend Height
m
Period
s
Dir
21/11:30pm 16.4 NNE 6 7 1013.8 - 0.0 - - - - - - -
21/11:00pm 16.5 N 7 7 1013.8 - 0.0 - - - - - - -
21/10:30pm 16.5 N 6 7 1013.9 - 0.0 - - - - - - -
21/10:00pm 16.5 NNW 6 7 1013.7 - 0.0 - - - - - - -
21/09:30pm 16.5 NW 8 10 1013.5 - 0.0 - - - - - - -
21/09:00pm 16.6 NW 10 11 1013.1 - 0.0 - - - - - - -
21/08:30pm 16.8 NNW 7 8 1013.0 - 0.0 - - - - - - -
21/08:00pm 16.8 NNW 9 11 1013.0 - 0.0 - - - - - - -
21/07:30pm 16.9 NW 9 11 1013.1 - 0.0 - - - - - - -
21/07:00pm 16.8 NW 10 12 1012.8 - 0.0 - - - - - - -
21/06:30pm 17.1 NW 12 14 1012.8 - 0.0 - - - - - - -
21/06:00pm 17.4 NW 11 13 1012.9 - 0.0 - - - - - - -
21/05:30pm 17.2 NW 13 15 1012.9 - 0.0 - - - - - - -
21/05:00pm 18.0 NW 12 15 1013.4 - 0.0 - - - - - - -
21/04:30pm 17.5 NW 12 15 1013.6 - 0.0 - - - - - - -
21/04:00pm 17.7 NNW 11 13 1013.5 - 0.0 - - - - - - -
21/03:30pm 17.7 NW 11 14 1013.8 - 0.0 - - - - - - -
21/03:00pm 17.6 NW 12 14 1013.9 R 0.0 Fine Cloudy 25 <0.5 0.5 3 NW
21/02:30pm 17.2 NNW 12 15 1014.0 - 0.0 - - - - - - -
21/02:00pm 17.5 NNW 14 16 1014.4 - 0.0 - - - - - - -
21/01:30pm 17.8 NNW 13 16 1014.9 - 0.0 - - - - - - -
21/01:00pm 18.6 NW 14 16 1015.4 - 0.0 - - - - - - -
21/12:30pm 18.3 NNW 11 13 1015.2 - 0.0 - - - - - - -
21/12:00pm 18.4 NNW 10 12 1015.2 - 0.0 - - - - - - -
21/11:30am 18.3 N 9 10 1015.4 - 0.0 - - - - - - -
21/11:00am 18.2 N 8 10 1015.2 - 0.0 - - - - - - -
21/10:30am 17.6 N 7 8 1015.2 - 0.0 - - - - - - -
21/10:00am 17.3 N 9 10 1015.4 - 0.0 - - - - - - -
21/09:30am 17.1 N 10 11 1015.3 - 0.0 - - - - - - -
21/09:00am 16.6 N 9 11 1015.1 F 0.0 Fine Mostly clear 25 1 1.0 3 -
21/08:30am 16.4 N 12 13 1015.1 - 0.0 - - - - - - -
21/08:00am 16.0 N 12 16 1014.7 - 0.0 - - - - - - -
21/07:30am 15.7 NNE 10 11 1014.5 - 0.0 - - - - - - -
21/07:00am 15.5 NNE 7 8 1014.6 - 0.0 - - - - - - -
21/06:30am 15.1 N 5 6 1015.2 - 0.0 - - - - - - -
21/06:00am 15.1 N 6 7 1014.9 F 0.0 Fine Partly cloudy 25 <0.1 0.5 3 NW
21/05:30am 15.2 N 8 9 1014.5 - 0.0 - - - - - - -
21/05:00am 15.2 NNE 10 12 1014.0 - 0.0 - - - - - - -
21/04:30am 15.3 NNE 12 13 1013.9 - 0.0 - - - - - - -
21/04:00am 15.7 NNE 12 13 1013.7 - 0.0 - - - - - - -
21/03:30am 15.8 NE 12 13 1013.7 - 0.0 - - - - - - -
21/03:00am 15.6 ENE 17 21 1013.8 - 0.0 - - - - - - -
21/02:30am 15.8 ENE 20 24 1013.9 - 0.0 - - - - - - -
21/02:00am 15.9 ENE 19 22 1014.1 - 0.0 - - - - - - -
21/01:30am 16.2 ENE 24 28 1014.1 - 0.0 - - - - - - -
21/01:00am 16.1 ENE 22 26 1014.4 - 0.0 - - - - - - -
21/12:53am 16.0 E 20 25 1014.4 - 0.0 - - - - - - -
21/12:30am 15.2 E 12 14 1014.6 - 0.0 - - - - - - -
21/12:00am 15.6 ENE 9 11 1014.6 - 0.0 - - - - - - -
 
Date/Time
EDT
Temp

°C
Wind Pressure Rain
since 9am
mm
Weather Cloud Vis
km
Sea
Height
m
Swell
Dir
 
Speed
knots
Gust
knots
hPa Trend Height
m
Period
s
Dir
20/11:30pm 16.4 W 9 12 1014.6 - 0.0 - - - - - - -
20/11:00pm 16.5 W 10 13 1014.4 - 0.0 - - - - - - -
20/10:30pm 16.9 W 13 16 1014.1 - 0.0 - - - - - - -
20/10:00pm 17.3 W 15 17 1013.8 - 0.0 - - - - - - -
20/09:30pm 17.6 W 17 19 1013.7 - 0.0 - - - - - - -
20/09:00pm 17.8 W 16 18 1013.4 - 0.0 - - - - - - -
20/08:30pm 18.2 W 15 17 1013.3 - 0.0 - - - - - - -
20/08:00pm 18.2 WNW 13 16 1013.1 - 0.0 - - - - - - -
20/07:30pm 18.9 WNW 18 20 1012.8 - 0.0 - - - - - - -
20/07:00pm 19.0 WNW 20 22 1012.4 - 0.0 - - - - - - -
20/06:30pm 19.1 NW 20 22 1012.2 - 0.0 - - - - - - -
20/06:00pm 19.5 WNW 20 22 1012.1 - 0.0 - - - - - - -
20/05:30pm 19.8 NW 18 22 1012.1 - 0.0 - - - - - - -
20/05:00pm 19.7 WNW 21 25 1012.2 - 0.0 - - - - - - -
20/04:30pm 19.6 NW 21 25 1012.3 - 0.0 - - - - - - -
20/04:00pm 20.1 WNW 21 25 1012.5 - 0.0 - - - - - - -
20/03:30pm 19.8 WNW 22 27 1012.7 - 0.0 - - - - - - -
20/03:00pm 20.0 NW 21 25 1012.7 R 0.0 Fine Mostly clear 25 2 1.5 3 NW
20/02:30pm 19.9 NW 20 23 1012.7 - 0.0 - - - - - - -
20/02:00pm 19.6 WNW 21 24 1012.8 - 0.0 - - - - - - -
20/01:30pm 19.2 NW 22 26 1012.9 - 0.0 - - - - - - -
20/01:00pm 19.1 WNW 23 27 1013.2 - 0.0 - - - - - - -
20/12:30pm 18.6 WNW 21 26 1013.3 - 0.0 - - - - - - -
20/12:00pm 18.1 WNW 20 23 1013.7 - 0.0 - - - - - - -

Other Formats:

Comma delimited format used in spreadsheet applications
http://www.bom.gov.au/fwo/IDV60701/IDV60701.95964.axf

JavaScript Object Notation format (JSON) in row-major order
http://www.bom.gov.au/fwo/IDV60701/IDV60701.95964.json